Ipixuna, Brazil
Current Conditions -  °F | °C
As of 4:00 PM on Wednesday 17 Dec 2014 (Local Time) from SBCZ Reporting Station
Rain Showers Rain Showers  
Wind Chill: 90°   Ceiling: Unl
Heat Index: 102°   Visibility: 6mi
Dew Point: 77°   Wind: 7mph
Humidity: 66%   Direction: 310°NW
Pressure: 29.77"   Gusts: NA
Location:  7.05°S, 71.69°W
Report Text: SBCZ 172000Z 31006KT 9999 VCSH SCT030 32/25 Q1008
Loading
Personal Weather Stations






























Interactive Weather Map New forecast layout! Learn more

10-Day Weather Forecast

Advertisements
Track Severe Weather on mobile